sensor_id;sensor_type;location;lat;lon;timestamp;P1;durP1;ratioP1;P2;durP2;ratioP2
9094;SDS011;4583;49.796;9.902;2023-04-08T00:06:06;16.27;;;10.50;;
9094;SDS011;4583;49.796;9.902;2023-04-08T00:16:08;13.30;;;10.37;;
9094;SDS011;4583;49.796;9.902;2023-04-08T00:26:10;15.07;;;9.90;;
9094;SDS011;4583;49.796;9.902;2023-04-08T00:36:12;16.93;;;10.17;;
9094;SDS011;4583;49.796;9.902;2023-04-08T00:46:13;14.13;;;9.60;;
9094;SDS011;4583;49.796;9.902;2023-04-08T00:56:15;13.63;;;9.33;;
9094;SDS011;4583;49.796;9.902;2023-04-08T01:06:37;14.70;;;9.47;;
9094;SDS011;4583;49.796;9.902;2023-04-08T01:16:47;12.83;;;8.87;;
9094;SDS011;4583;49.796;9.902;2023-04-08T01:26:48;14.47;;;9.33;;
9094;SDS011;4583;49.796;9.902;2023-04-08T01:36:50;13.37;;;9.23;;
9094;SDS011;4583;49.796;9.902;2023-04-08T01:46:53;13.47;;;9.17;;
9094;SDS011;4583;49.796;9.902;2023-04-08T01:56:56;14.37;;;9.17;;
9094;SDS011;4583;49.796;9.902;2023-04-08T02:07:00;12.87;;;8.60;;
9094;SDS011;4583;49.796;9.902;2023-04-08T02:17:08;12.93;;;9.23;;
9094;SDS011;4583;49.796;9.902;2023-04-08T02:27:12;13.97;;;8.77;;
9094;SDS011;4583;49.796;9.902;2023-04-08T02:37:15;12.93;;;9.07;;
9094;SDS011;4583;49.796;9.902;2023-04-08T02:47:17;14.00;;;8.90;;
9094;SDS011;4583;49.796;9.902;2023-04-08T02:57:19;12.17;;;9.00;;
9094;SDS011;4583;49.796;9.902;2023-04-08T03:07:20;12.73;;;8.33;;
9094;SDS011;4583;49.796;9.902;2023-04-08T03:17:22;13.37;;;8.80;;
9094;SDS011;4583;49.796;9.902;2023-04-08T03:27:24;13.10;;;9.40;;
9094;SDS011;4583;49.796;9.902;2023-04-08T03:37:26;18.97;;;9.37;;
9094;SDS011;4583;49.796;9.902;2023-04-08T03:47:28;13.83;;;9.40;;
9094;SDS011;4583;49.796;9.902;2023-04-08T03:57:30;15.47;;;9.33;;
9094;SDS011;4583;49.796;9.902;2023-04-08T04:07:32;11.77;;;9.13;;
9094;SDS011;4583;49.796;9.902;2023-04-08T04:17:33;14.43;;;9.40;;
9094;SDS011;4583;49.796;9.902;2023-04-08T04:27:35;13.80;;;9.37;;
9094;SDS011;4583;49.796;9.902;2023-04-08T04:37:37;13.83;;;9.43;;
9094;SDS011;4583;49.796;9.902;2023-04-08T04:47:39;12.00;;;8.97;;
9094;SDS011;4583;49.796;9.902;2023-04-08T04:57:41;12.07;;;7.80;;
9094;SDS011;4583;49.796;9.902;2023-04-08T05:07:44;11.77;;;8.43;;
9094;SDS011;4583;49.796;9.902;2023-04-08T05:17:46;12.07;;;8.90;;
9094;SDS011;4583;49.796;9.902;2023-04-08T05:27:48;14.83;;;9.30;;
9094;SDS011;4583;49.796;9.902;2023-04-08T05:37:49;10.93;;;8.27;;
9094;SDS011;4583;49.796;9.902;2023-04-08T05:47:51;11.10;;;8.50;;
9094;SDS011;4583;49.796;9.902;2023-04-08T05:57:53;15.23;;;7.90;;
9094;SDS011;4583;49.796;9.902;2023-04-08T06:07:55;12.07;;;7.53;;
9094;SDS011;4583;49.796;9.902;2023-04-08T06:17:57;10.30;;;8.00;;
9094;SDS011;4583;49.796;9.902;2023-04-08T06:27:58;10.07;;;7.90;;
9094;SDS011;4583;49.796;9.902;2023-04-08T06:38:00;10.63;;;8.23;;
9094;SDS011;4583;49.796;9.902;2023-04-08T06:48:02;10.23;;;7.70;;
9094;SDS011;4583;49.796;9.902;2023-04-08T06:58:04;10.33;;;7.90;;
9094;SDS011;4583;49.796;9.902;2023-04-08T07:08:06;10.53;;;8.17;;
9094;SDS011;4583;49.796;9.902;2023-04-08T07:18:09;12.77;;;8.03;;
9094;SDS011;4583;49.796;9.902;2023-04-08T07:28:10;12.57;;;8.20;;
9094;SDS011;4583;49.796;9.902;2023-04-08T07:38:12;11.83;;;8.17;;
9094;SDS011;4583;49.796;9.902;2023-04-08T07:48:14;12.33;;;9.07;;
9094;SDS011;4583;49.796;9.902;2023-04-08T07:58:16;14.30;;;9.40;;
9094;SDS011;4583;49.796;9.902;2023-04-08T08:08:17;9.70;;;7.93;;
9094;SDS011;4583;49.796;9.902;2023-04-08T08:18:19;19.23;;;8.20;;
9094;SDS011;4583;49.796;9.902;2023-04-08T08:28:21;10.63;;;8.30;;
9094;SDS011;4583;49.796;9.902;2023-04-08T08:38:23;9.80;;;7.70;;
9094;SDS011;4583;49.796;9.902;2023-04-08T08:48:26;12.53;;;8.00;;
9094;SDS011;4583;49.796;9.902;2023-04-08T08:58:28;11.03;;;8.40;;
9094;SDS011;4583;49.796;9.902;2023-04-08T09:08:30;12.00;;;7.83;;
9094;SDS011;4583;49.796;9.902;2023-04-08T09:18:37;9.27;;;7.13;;
9094;SDS011;4583;49.796;9.902;2023-04-08T09:28:40;10.97;;;7.10;;
9094;SDS011;4583;49.796;9.902;2023-04-08T09:38:44;9.23;;;6.50;;
9094;SDS011;4583;49.796;9.902;2023-04-08T10:07:56;8.37;;;4.23;;
9094;SDS011;4583;49.796;9.902;2023-04-08T10:38:18;4.90;;;3.50;;
9094;SDS011;4583;49.796;9.902;2023-04-08T10:48:23;4.53;;;3.77;;
9094;SDS011;4583;49.796;9.902;2023-04-08T11:04:33;6.70;;;4.00;;
9094;SDS011;4583;49.796;9.902;2023-04-08T11:18:53;4.43;;;3.77;;
9094;SDS011;4583;49.796;9.902;2023-04-08T11:28:55;5.17;;;4.13;;
9094;SDS011;4583;49.796;9.902;2023-04-08T11:38:58;5.20;;;4.10;;
9094;SDS011;4583;49.796;9.902;2023-04-08T11:49:01;4.40;;;3.57;;
9094;SDS011;4583;49.796;9.902;2023-04-08T11:59:04;5.03;;;3.67;;
9094;SDS011;4583;49.796;9.902;2023-04-08T12:09:06;4.37;;;3.57;;
9094;SDS011;4583;49.796;9.902;2023-04-08T12:19:08;4.90;;;3.63;;
9094;SDS011;4583;49.796;9.902;2023-04-08T12:29:10;4.60;;;4.10;;
9094;SDS011;4583;49.796;9.902;2023-04-08T12:39:11;4.50;;;3.70;;
9094;SDS011;4583;49.796;9.902;2023-04-08T12:49:13;5.10;;;3.90;;
9094;SDS011;4583;49.796;9.902;2023-04-08T12:59:15;8.87;;;6.67;;
9094;SDS011;4583;49.796;9.902;2023-04-08T13:09:17;5.43;;;4.37;;
9094;SDS011;4583;49.796;9.902;2023-04-08T13:19:18;4.37;;;3.80;;
9094;SDS011;4583;49.796;9.902;2023-04-08T13:29:20;3.80;;;3.40;;
9094;SDS011;4583;49.796;9.902;2023-04-08T13:39:22;3.37;;;3.00;;
9094;SDS011;4583;49.796;9.902;2023-04-08T13:49:23;3.50;;;3.17;;
9094;SDS011;4583;49.796;9.902;2023-04-08T13:59:26;4.13;;;3.47;;
9094;SDS011;4583;49.796;9.902;2023-04-08T14:09:27;3.90;;;3.30;;
9094;SDS011;4583;49.796;9.902;2023-04-08T14:19:29;4.10;;;3.40;;
9094;SDS011;4583;49.796;9.902;2023-04-08T14:29:32;6.33;;;3.53;;
9094;SDS011;4583;49.796;9.902;2023-04-08T14:39:33;3.90;;;3.50;;
9094;SDS011;4583;49.796;9.902;2023-04-08T14:49:35;5.30;;;3.80;;
9094;SDS011;4583;49.796;9.902;2023-04-08T14:59:37;4.67;;;3.50;;
9094;SDS011;4583;49.796;9.902;2023-04-08T15:09:39;5.00;;;3.63;;
9094;SDS011;4583;49.796;9.902;2023-04-08T15:19:41;6.23;;;3.77;;
9094;SDS011;4583;49.796;9.902;2023-04-08T15:29:43;6.63;;;4.40;;
9094;SDS011;4583;49.796;9.902;2023-04-08T15:39:45;6.53;;;4.13;;
9094;SDS011;4583;49.796;9.902;2023-04-08T15:49:47;5.23;;;4.33;;
9094;SDS011;4583;49.796;9.902;2023-04-08T15:59:48;7.07;;;4.53;;
9094;SDS011;4583;49.796;9.902;2023-04-08T16:09:50;9.73;;;4.67;;
9094;SDS011;4583;49.796;9.902;2023-04-08T16:19:52;6.70;;;4.60;;
9094;SDS011;4583;49.796;9.902;2023-04-08T16:29:54;6.23;;;4.67;;
9094;SDS011;4583;49.796;9.902;2023-04-08T16:39:57;6.17;;;5.07;;
9094;SDS011;4583;49.796;9.902;2023-04-08T16:49:59;6.93;;;5.10;;
9094;SDS011;4583;49.796;9.902;2023-04-08T17:00:01;7.63;;;5.70;;
9094;SDS011;4583;49.796;9.902;2023-04-08T17:10:03;7.73;;;6.03;;
9094;SDS011;4583;49.796;9.902;2023-04-08T17:20:05;7.17;;;5.70;;
9094;SDS011;4583;49.796;9.902;2023-04-08T17:30:08;6.83;;;5.30;;
9094;SDS011;4583;49.796;9.902;2023-04-08T17:40:11;7.93;;;5.60;;
9094;SDS011;4583;49.796;9.902;2023-04-08T17:50:13;6.20;;;5.20;;
9094;SDS011;4583;49.796;9.902;2023-04-08T18:00:15;8.03;;;5.90;;
9094;SDS011;4583;49.796;9.902;2023-04-08T18:10:17;6.87;;;5.53;;
9094;SDS011;4583;49.796;9.902;2023-04-08T18:20:19;10.57;;;5.67;;
9094;SDS011;4583;49.796;9.902;2023-04-08T18:30:20;7.80;;;5.30;;
9094;SDS011;4583;49.796;9.902;2023-04-08T18:40:22;7.30;;;5.40;;
9094;SDS011;4583;49.796;9.902;2023-04-08T18:50:25;9.07;;;5.80;;
9094;SDS011;4583;49.796;9.902;2023-04-08T19:00:27;8.63;;;6.33;;
9094;SDS011;4583;49.796;9.902;2023-04-08T19:10:29;9.80;;;6.30;;
9094;SDS011;4583;49.796;9.902;2023-04-08T19:20:31;8.77;;;5.90;;
9094;SDS011;4583;49.796;9.902;2023-04-08T19:30:36;11.10;;;6.80;;
9094;SDS011;4583;49.796;9.902;2023-04-08T19:40:38;9.60;;;6.77;;
9094;SDS011;4583;49.796;9.902;2023-04-08T19:50:40;10.13;;;6.93;;
9094;SDS011;4583;49.796;9.902;2023-04-08T20:00:42;9.83;;;6.90;;
9094;SDS011;4583;49.796;9.902;2023-04-08T20:10:44;11.57;;;8.10;;
9094;SDS011;4583;49.796;9.902;2023-04-08T20:20:46;11.17;;;7.77;;
9094;SDS011;4583;49.796;9.902;2023-04-08T20:30:49;11.83;;;8.20;;
9094;SDS011;4583;49.796;9.902;2023-04-08T20:40:51;12.27;;;8.13;;
9094;SDS011;4583;49.796;9.902;2023-04-08T20:50:53;13.67;;;9.47;;
9094;SDS011;4583;49.796;9.902;2023-04-08T21:00:58;14.57;;;10.20;;
9094;SDS011;4583;49.796;9.902;2023-04-08T21:11:00;12.93;;;8.93;;
9094;SDS011;4583;49.796;9.902;2023-04-08T21:21:01;17.53;;;10.90;;
9094;SDS011;4583;49.796;9.902;2023-04-08T21:31:07;16.27;;;11.10;;
9094;SDS011;4583;49.796;9.902;2023-04-08T21:41:12;18.90;;;10.93;;
9094;SDS011;4583;49.796;9.902;2023-04-08T21:51:17;15.30;;;10.50;;
9094;SDS011;4583;49.796;9.902;2023-04-08T22:01:19;16.73;;;9.97;;
9094;SDS011;4583;49.796;9.902;2023-04-08T22:11:21;13.40;;;9.33;;
9094;SDS011;4583;49.796;9.902;2023-04-08T22:21:23;15.80;;;10.57;;
9094;SDS011;4583;49.796;9.902;2023-04-08T22:31:25;17.17;;;10.73;;
9094;SDS011;4583;49.796;9.902;2023-04-08T22:41:27;15.23;;;10.37;;
9094;SDS011;4583;49.796;9.902;2023-04-08T22:51:28;15.17;;;9.77;;
9094;SDS011;4583;49.796;9.902;2023-04-08T23:01:30;14.33;;;10.03;;
9094;SDS011;4583;49.796;9.902;2023-04-08T23:11:32;13.23;;;9.07;;
9094;SDS011;4583;49.796;9.902;2023-04-08T23:21:35;11.90;;;8.60;;
9094;SDS011;4583;49.796;9.902;2023-04-08T23:31:36;15.63;;;10.07;;
9094;SDS011;4583;49.796;9.902;2023-04-08T23:41:38;15.13;;;10.00;;
9094;SDS011;4583;49.796;9.902;2023-04-08T23:51:40;15.10;;;10.10;;
